Time;durP1;ratioP1;P1;durP2;ratioP2;P2;SDS_P1;SDS_P2;PMS_P1;PMS_P2;Temp;Humidity;BMP_temperature;BMP_pressure;BME280_temperature;BME280_humidity;BME280_pressure;Samples;Min_cycle;Max_cycle;Signal;HPM_P1;HPM_P2
2023/11/30 00:01:46;;;;;;;8.40;8.07;;;3.30;99.90;;;;;;5017432;28;20332;-80
2023/11/30 00:04:14;;;;;;;9.32;8.57;;;3.30;99.90;;;;;;5016636;28;20230;-80
2023/11/30 00:06:42;;;;;;;8.38;7.97;;;3.20;99.90;;;;;;5022101;28;20195;-79
2023/11/30 00:09:10;;;;;;;8.43;7.93;;;3.20;99.90;;;;;;5025203;28;20210;-81
2023/11/30 00:11:38;;;;;;;8.25;7.80;;;3.20;99.90;;;;;;5021154;28;20202;-80
2023/11/30 00:14:08;;;;;;;8.57;8.07;;;3.20;99.90;;;;;;5022738;28;20925;-80
2023/11/30 00:16:36;;;;;;;8.45;7.80;;;3.10;99.90;;;;;;5017929;28;20202;-80
2023/11/30 00:19:05;;;;;;;7.70;7.30;;;3.10;99.90;;;;;;5021551;28;20587;-80
2023/11/30 00:21:33;;;;;;;8.38;7.88;;;3.10;99.90;;;;;;5019142;28;20210;-79
2023/11/30 00:24:01;;;;;;;7.88;7.38;;;3.00;99.90;;;;;;5021342;28;20223;-80
2023/11/30 00:26:29;;;;;;;7.60;7.25;;;3.00;99.90;;;;;;5024060;28;20852;-80
2023/11/30 00:28:57;;;;;;;8.70;8.10;;;3.00;99.90;;;;;;5026125;28;20201;-80
2023/11/30 00:31:28;;;;;;;9.40;8.90;;;3.00;99.90;;;;;;5020638;28;20234;-80
2023/11/30 00:33:56;;;;;;;8.50;7.85;;;2.90;99.90;;;;;;5023058;28;20218;-81
2023/11/30 00:36:24;;;;;;;7.95;7.55;;;2.90;99.90;;;;;;5023395;28;20207;-81
2023/11/30 00:38:53;;;;;;;8.18;7.68;;;3.00;99.90;;;;;;5023233;28;20729;-81
2023/11/30 00:41:21;;;;;;;8.57;8.07;;;2.90;99.90;;;;;;5020790;28;20244;-81
2023/11/30 00:43:49;;;;;;;8.27;7.88;;;2.90;99.90;;;;;;5023713;28;20206;-81
2023/11/30 00:46:18;;;;;;;9.18;8.57;;;2.90;99.90;;;;;;5018704;28;20217;-80
2023/11/30 00:48:47;;;;;;;9.35;8.85;;;3.00;99.90;;;;;;5018648;28;20207;-79
2023/11/30 00:51:16;;;;;;;8.63;7.85;;;3.00;99.90;;;;;;5018961;28;20202;-79
2023/11/30 00:53:44;;;;;;;9.00;8.60;;;3.00;99.90;;;;;;5016372;28;21110;-79
2023/11/30 00:56:13;;;;;;;9.10;8.68;;;2.90;99.90;;;;;;5017405;28;20553;-80
2023/11/30 00:58:41;;;;;;;9.40;8.60;;;2.90;99.90;;;;;;5018090;28;20195;-79
2023/11/30 01:01:09;;;;;;;8.98;8.38;;;2.90;99.90;;;;;;5018962;28;20309;-80
2023/11/30 01:03:37;;;;;;;8.68;8.00;;;2.80;99.90;;;;;;5024631;28;20581;-80
2023/11/30 01:06:07;;;;;;;8.75;8.05;;;2.90;99.90;;;;;;5021844;28;20215;-81
2023/11/30 01:08:35;;;;;;;9.30;8.75;;;2.80;99.90;;;;;;5023664;28;20226;-80
2023/11/30 01:11:04;;;;;;;8.90;8.30;;;2.80;99.90;;;;;;5030930;28;20264;-81
2023/11/30 01:13:32;;;;;;;9.15;8.55;;;2.80;99.90;;;;;;5027091;28;20230;-80
2023/11/30 01:16:01;;;;;;;10.20;9.20;;;2.80;99.90;;;;;;5023958;28;20219;-79
2023/11/30 01:18:29;;;;;;;11.00;10.30;;;2.70;99.90;;;;;;5028757;28;20628;-80
2023/11/30 01:21:00;;;;;;;9.40;8.80;;;2.80;99.90;;;;;;5024064;28;20850;-80
2023/11/30 01:23:30;;;;;;;9.82;8.98;;;2.90;99.90;;;;;;5027047;28;20545;-80
2023/11/30 01:25:58;;;;;;;9.93;9.23;;;3.00;99.90;;;;;;5024793;28;20210;-79
2023/11/30 01:28:26;;;;;;;9.73;9.02;;;3.00;99.90;;;;;;5024677;28;20205;-79
2023/11/30 01:30:54;;;;;;;9.63;8.90;;;3.00;99.90;;;;;;5025992;28;20195;-78
2023/11/30 01:33:23;;;;;;;9.50;8.90;;;2.90;99.90;;;;;;5027455;28;20257;-80
2023/11/30 01:35:51;;;;;;;8.57;8.07;;;2.90;99.90;;;;;;5019654;28;20495;-80
2023/11/30 01:38:19;;;;;;;9.00;8.40;;;2.90;99.90;;;;;;5024158;28;20207;-80
2023/11/30 01:40:49;;;;;;;9.88;9.07;;;2.90;99.90;;;;;;5037560;28;20606;-80
2023/11/30 01:43:19;;;;;;;8.80;8.25;;;2.90;99.90;;;;;;5025115;28;20209;-80
2023/11/30 01:45:48;;;;;;;11.35;10.25;;;2.80;99.90;;;;;;5022520;28;20226;-79
2023/11/30 01:48:26;;;;;;;10.35;9.68;;;2.90;99.90;;;;;;5027467;28;20198;-80
2023/11/30 01:50:56;;;;;;;10.25;9.65;;;2.90;99.90;;;;;;5021227;28;20195;-79
2023/11/30 01:53:24;;;;;;;10.55;9.85;;;2.90;99.90;;;;;;5024960;28;20211;-80
2023/11/30 01:55:54;;;;;;;10.60;9.88;;;2.90;99.90;;;;;;5018106;28;20250;-80
2023/11/30 01:58:22;;;;;;;10.90;10.05;;;2.90;99.90;;;;;;5020555;28;20295;-79
2023/11/30 02:00:52;;;;;;;10.48;9.52;;;2.90;99.90;;;;;;5020488;28;20226;-79
2023/11/30 02:03:21;;;;;;;9.20;8.60;;;2.90;99.90;;;;;;5016631;28;20211;-80
2023/11/30 02:05:53;;;;;;;9.25;8.65;;;2.90;99.90;;;;;;5026777;28;20222;-80
2023/11/30 02:08:21;;;;;;;9.13;8.43;;;2.90;99.90;;;;;;5024416;28;20203;-80
2023/11/30 02:10:50;;;;;;;10.95;10.10;;;2.90;99.90;;;;;;5026534;28;20222;-80
2023/11/30 02:13:20;;;;;;;9.30;8.65;;;2.90;99.90;;;;;;5023994;28;20211;-81
2023/11/30 02:15:48;;;;;;;9.98;9.27;;;2.90;99.90;;;;;;5038179;28;20249;-81
2023/11/30 02:18:16;;;;;;;10.18;9.48;;;2.90;99.90;;;;;;5023907;28;20269;-80
2023/11/30 02:20:44;;;;;;;8.98;8.57;;;2.80;99.90;;;;;;5027084;28;20218;-81
2023/11/30 02:23:14;;;;;;;9.80;9.20;;;2.80;99.90;;;;;;5025964;28;20206;-80
2023/11/30 02:25:42;;;;;;;9.32;8.73;;;2.80;99.90;;;;;;5025567;28;20325;-80
2023/11/30 02:28:16;;;;;;;9.48;8.77;;;2.80;99.90;;;;;;5028984;28;20213;-81
2023/11/30 02:30:46;;;;;;;9.20;8.68;;;2.70;99.90;;;;;;5025767;28;20201;-81
2023/11/30 02:33:14;;;;;;;9.13;8.50;;;2.70;99.90;;;;;;5026178;28;20266;-80
2023/11/30 02:35:43;;;;;;;8.57;8.05;;;2.60;99.90;;;;;;5025333;28;20300;-81
2023/11/30 02:38:11;;;;;;;10.40;9.70;;;2.60;99.90;;;;;;5026605;28;20203;-80
2023/11/30 02:40:41;;;;;;;9.50;8.93;;;2.50;99.90;;;;;;5023501;28;20293;-80
2023/11/30 02:43:09;;;;;;;9.50;8.80;;;2.50;99.90;;;;;;5024745;28;20676;-81
2023/11/30 02:45:37;;;;;;;9.80;9.10;;;2.50;99.90;;;;;;5024332;28;20215;-80
2023/11/30 02:48:06;;;;;;;9.07;8.57;;;2.50;99.90;;;;;;5025826;28;20190;-81
2023/11/30 02:50:34;;;;;;;9.88;8.98;;;2.50;99.90;;;;;;5025282;28;20199;-80
2023/11/30 02:53:02;;;;;;;9.05;8.50;;;2.60;99.90;;;;;;5022579;28;20269;-80
2023/11/30 02:55:30;;;;;;;9.23;8.63;;;2.60;99.90;;;;;;5023127;28;20310;-81
2023/11/30 02:58:00;;;;;;;10.15;9.35;;;2.70;99.90;;;;;;5025973;28;20707;-82
2023/11/30 03:00:28;;;;;;;9.45;8.85;;;2.70;99.90;;;;;;5025288;28;20237;-81
2023/11/30 03:02:56;;;;;;;9.77;9.07;;;2.80;99.90;;;;;;5022046;28;20215;-81
2023/11/30 03:05:24;;;;;;;11.40;10.27;;;2.80;99.90;;;;;;5018837;28;20322;-80
2023/11/30 03:07:52;;;;;;;10.07;9.48;;;2.80;99.90;;;;;;5024835;28;20203;-81
2023/11/30 03:10:21;;;;;;;10.32;9.55;;;2.80;99.90;;;;;;5021077;28;20197;-81
2023/11/30 03:12:51;;;;;;;10.50;9.80;;;2.80;99.90;;;;;;5025183;28;20199;-80
2023/11/30 03:15:22;;;;;;;9.80;9.30;;;2.80;99.90;;;;;;5022672;28;20227;-81
2023/11/30 03:17:50;;;;;;;10.40;9.50;;;2.70;99.90;;;;;;5027094;28;20212;-80
2023/11/30 03:20:19;;;;;;;9.05;8.45;;;2.80;99.90;;;;;;5019380;28;20274;-80
2023/11/30 03:22:47;;;;;;;9.05;8.38;;;2.80;99.90;;;;;;5026370;28;20230;-80
2023/11/30 03:25:15;;;;;;;9.40;8.80;;;2.70;99.90;;;;;;5025317;28;20226;-80
2023/11/30 03:27:43;;;;;;;10.45;9.65;;;2.70;99.90;;;;;;5025341;28;20248;-81
2023/11/30 03:30:12;;;;;;;10.10;9.50;;;2.70;99.90;;;;;;5022763;28;20253;-79
2023/11/30 03:32:42;;;;;;;9.43;8.80;;;2.70;99.90;;;;;;5021035;28;20265;-79
2023/11/30 03:35:10;;;;;;;10.13;9.52;;;2.60;99.90;;;;;;5014706;28;20214;-79
2023/11/30 03:37:42;;;;;;;9.02;8.43;;;2.50;99.90;;;;;;5019252;28;20927;-79
2023/11/30 03:40:12;;;;;;;10.18;9.48;;;2.50;99.90;;;;;;5017037;28;20207;-79
2023/11/30 03:42:40;;;;;;;9.15;8.55;;;2.60;1.00;;;;;;5023692;28;20287;-80
2023/11/30 03:45:09;;;;;;;9.55;8.85;;;2.60;1.00;;;;;;5021993;28;20229;-80
2023/11/30 03:47:37;;;;;;;8.93;8.35;;;2.50;1.00;;;;;;5024602;28;20190;-80
2023/11/30 03:50:08;;;;;;;9.50;8.90;;;2.60;1.00;;;;;;5022304;28;20198;-80
2023/11/30 03:52:36;;;;;;;9.60;8.95;;;2.60;1.00;;;;;;5020795;28;20259;-80
2023/11/30 03:55:05;;;;;;;9.45;8.80;;;2.60;1.00;;;;;;5023903;28;20220;-80
2023/11/30 03:57:33;;;;;;;10.02;9.43;;;2.70;1.00;;;;;;5024661;28;20661;-80
2023/11/30 04:00:01;;;;;;;10.10;9.30;;;2.70;99.90;;;;;;5016743;28;20206;-80
2023/11/30 04:02:30;;;;;;;10.13;9.38;;;2.80;99.90;;;;;;5018298;28;20222;-80
2023/11/30 04:04:59;;;;;;;10.25;9.65;;;2.80;99.90;;;;;;5022054;28;20754;-79
2023/11/30 04:07:29;;;;;;;11.48;10.75;;;2.70;99.90;;;;;;5020892;28;20195;-80
2023/11/30 04:09:58;;;;;;;10.30;9.60;;;2.70;99.90;;;;;;5023707;28;20206;-79
2023/11/30 04:12:26;;;;;;;10.10;9.50;;;2.70;99.90;;;;;;5017623;28;20688;-79
2023/11/30 04:14:55;;;;;;;9.95;9.30;;;2.70;1.00;;;;;;5017781;28;20233;-80
2023/11/30 04:17:23;;;;;;;10.15;9.23;;;2.70;1.00;;;;;;5016961;28;20202;-79
2023/11/30 04:19:51;;;;;;;10.63;9.82;;;2.60;1.00;;;;;;5018100;28;20297;-79
2023/11/30 04:22:19;;;;;;;10.43;9.63;;;2.70;1.00;;;;;;5018631;28;20791;-79
2023/11/30 04:24:49;;;;;;;9.25;8.63;;;2.60;1.00;;;;;;5016874;28;20215;-80
2023/11/30 04:27:17;;;;;;;9.63;9.13;;;2.60;1.00;;;;;;5014967;28;20207;-79
2023/11/30 04:29:45;;;;;;;10.40;9.80;;;2.60;1.00;;;;;;5017632;28;20774;-80
2023/11/30 04:32:14;;;;;;;10.70;10.00;;;2.60;1.00;;;;;;5016645;28;20270;-80
2023/11/30 04:34:42;;;;;;;10.48;9.68;;;2.60;1.00;;;;;;5014356;28;20314;-80
2023/11/30 04:37:10;;;;;;;11.43;10.43;;;2.60;1.00;;;;;;5017257;28;20205;-79
2023/11/30 04:39:39;;;;;;;10.93;10.13;;;2.60;1.00;;;;;;5014588;28;20211;-80
2023/11/30 04:42:08;;;;;;;11.00;10.10;;;2.60;1.00;;;;;;5018129;28;20219;-79
2023/11/30 04:44:37;;;;;;;10.73;10.00;;;2.70;1.00;;;;;;5014482;28;20229;-80
2023/11/30 04:47:06;;;;;;;11.20;10.30;;;2.60;1.00;;;;;;5018753;28;20238;-80
2023/11/30 04:49:34;;;;;;;11.32;10.43;;;2.70;1.00;;;;;;5017075;28;20289;-79
2023/11/30 04:52:02;;;;;;;10.85;10.15;;;2.80;1.00;;;;;;5016226;28;20206;-79
2023/11/30 04:54:30;;;;;;;10.40;9.80;;;2.80;1.00;;;;;;5019103;28;20228;-79
2023/11/30 04:56:59;;;;;;;11.65;10.75;;;2.80;1.00;;;;;;5017880;28;20221;-79
2023/11/30 04:59:28;;;;;;;9.77;9.27;;;2.80;1.00;;;;;;5014651;28;20271;-79
2023/11/30 05:01:58;;;;;;;11.85;10.93;;;2.70;1.00;;;;;;5018019;28;20313;-80
2023/11/30 05:04:26;;;;;;;11.75;10.88;;;2.80;1.00;;;;;;5023624;28;20241;-81
2023/11/30 05:06:55;;;;;;;11.27;10.52;;;2.70;1.00;;;;;;5023378;28;20238;-80
2023/11/30 05:09:23;;;;;;;12.80;11.75;;;2.70;1.00;;;;;;5024751;28;20324;-81
2023/11/30 05:11:51;;;;;;;13.35;12.35;;;2.70;1.00;;;;;;5025546;28;20201;-82
2023/11/30 05:14:19;;;;;;;12.00;11.10;;;2.60;1.00;;;;;;5026014;28;20663;-80
2023/11/30 05:16:49;;;;;;;13.30;12.30;;;2.60;1.00;;;;;;5020936;28;20211;-80
2023/11/30 05:19:17;;;;;;;10.82;10.23;;;2.60;1.00;;;;;;5018648;28;20206;-80
2023/11/30 05:21:45;;;;;;;10.88;9.88;;;2.60;1.00;;;;;;5017640;28;20365;-81
2023/11/30 05:24:13;;;;;;;10.65;9.90;;;2.50;1.00;;;;;;5023960;28;20290;-80
2023/11/30 05:26:42;;;;;;;10.38;9.68;;;2.50;1.00;;;;;;5025330;28;20195;-81
2023/11/30 05:29:10;;;;;;;10.50;9.82;;;2.60;1.00;;;;;;5024299;28;20211;-81
2023/11/30 05:31:38;;;;;;;9.90;9.30;;;2.60;1.00;;;;;;5020948;28;20356;-80
2023/11/30 05:34:08;;;;;;;10.73;9.73;;;2.60;1.00;;;;;;5019874;28;20340;-80
2023/11/30 05:36:36;;;;;;;9.15;8.55;;;2.60;1.00;;;;;;5020440;28;20199;-78
2023/11/30 05:39:06;;;;;;;10.00;9.35;;;2.60;1.00;;;;;;5014114;28;20709;-78
2023/11/30 05:41:34;;;;;;;9.93;9.25;;;2.70;99.90;;;;;;5016456;28;20207;-79
2023/11/30 05:44:04;;;;;;;9.80;9.20;;;2.70;99.90;;;;;;5017151;28;20304;-79
2023/11/30 05:46:33;;;;;;;9.20;8.70;;;2.80;99.90;;;;;;5019582;28;20261;-81
2023/11/30 05:49:02;;;;;;;8.57;8.18;;;2.70;99.90;;;;;;5016778;28;20209;-79
2023/11/30 05:51:31;;;;;;;8.15;7.75;;;2.80;99.90;;;;;;5020833;28;20202;-80
2023/11/30 05:53:59;;;;;;;8.90;8.50;;;2.80;99.90;;;;;;5019022;28;20226;-80
2023/11/30 05:56:28;;;;;;;10.00;9.40;;;2.80;99.90;;;;;;5022145;28;20257;-80
2023/11/30 05:58:56;;;;;;;8.70;8.20;;;2.90;99.90;;;;;;5015119;28;21149;-79
2023/11/30 06:01:24;;;;;;;9.60;9.00;;;2.90;99.90;;;;;;5013223;28;20676;-79
2023/11/30 06:03:52;;;;;;;8.90;8.40;;;2.90;99.90;;;;;;5016363;28;20246;-79
2023/11/30 06:06:21;;;;;;;9.45;8.73;;;2.80;99.90;;;;;;5020068;28;20289;-78
2023/11/30 06:08:50;;;;;;;9.45;8.95;;;2.90;99.90;;;;;;5020255;28;20748;-79
2023/11/30 06:11:18;;;;;;;9.23;8.73;;;2.90;99.90;;;;;;5020585;28;20199;-79
2023/11/30 06:13:47;;;;;;;9.75;9.18;;;2.90;99.90;;;;;;5035338;28;20194;-79
2023/11/30 06:16:15;;;;;;;9.98;9.38;;;2.90;99.90;;;;;;5016675;28;20217;-80
2023/11/30 06:18:43;;;;;;;9.15;8.65;;;2.90;99.90;;;;;;5016858;28;20293;-78
2023/11/30 06:21:11;;;;;;;8.95;8.55;;;2.90;99.90;;;;;;5019150;28;20286;-80
2023/11/30 06:23:42;;;;;;;9.75;8.85;;;3.00;99.90;;;;;;5022152;28;20249;-78
2023/11/30 06:26:13;;;;;;;9.10;8.60;;;3.00;99.90;;;;;;5019214;28;20195;-79
2023/11/30 06:28:42;;;;;;;9.45;8.90;;;2.90;99.90;;;;;;5016624;28;20694;-80
2023/11/30 06:31:10;;;;;;;9.70;9.20;;;3.00;99.90;;;;;;5021872;28;20286;-80
2023/11/30 06:33:38;;;;;;;9.60;9.10;;;2.90;99.90;;;;;;5013332;28;20769;-81
2023/11/30 06:36:07;;;;;;;10.47;9.67;;;2.90;99.90;;;;;;5015605;28;20206;-80
2023/11/30 06:38:35;;;;;;;10.40;9.70;;;3.00;99.90;;;;;;5016784;28;20461;-79
2023/11/30 06:41:12;;;;;;;11.15;10.27;;;3.00;99.90;;;;;;5022278;28;20286;-80
2023/11/30 06:43:40;;;;;;;10.93;10.02;;;3.00;99.90;;;;;;5016984;28;20225;-79
2023/11/30 06:46:09;;;;;;;11.48;10.52;;;3.00;99.90;;;;;;5020461;28;20199;-80
2023/11/30 06:48:37;;;;;;;11.65;10.77;;;3.00;99.90;;;;;;5020531;28;20207;-80
2023/11/30 06:51:07;;;;;;;11.98;11.07;;;3.00;99.90;;;;;;5021484;28;20195;-80
2023/11/30 06:53:35;;;;;;;10.93;10.18;;;3.10;99.90;;;;;;5015279;28;20202;-79
2023/11/30 06:56:05;;;;;;;11.30;10.50;;;3.10;99.90;;;;;;5017911;28;20713;-79
2023/11/30 06:58:34;;;;;;;13.63;12.43;;;3.00;99.90;;;;;;5013732;28;20203;-80
2023/11/30 07:01:04;;;;;;;12.93;12.02;;;3.10;99.90;;;;;;5018721;28;20256;-80
2023/11/30 07:03:33;;;;;;;14.32;13.23;;;3.00;99.90;;;;;;5018835;28;20223;-79
2023/11/30 07:06:09;;;;;;;13.70;12.50;;;3.00;99.90;;;;;;5016584;28;20228;-80
2023/11/30 07:08:38;;;;;;;12.75;11.50;;;2.90;99.90;;;;;;5018701;28;20198;-79
2023/11/30 07:11:11;;;;;;;12.30;11.20;;;2.90;99.90;;;;;;5019578;28;20229;-80
2023/11/30 07:13:40;;;;;;;10.95;10.07;;;3.00;99.90;;;;;;5018926;28;20217;-80
2023/11/30 07:16:10;;;;;;;11.70;10.70;;;3.10;99.90;;;;;;5018381;28;20210;-80
2023/11/30 07:18:38;;;;;;;11.23;10.48;;;3.10;99.90;;;;;;5018821;28;20203;-80
2023/11/30 07:21:13;;;;;;;12.07;11.15;;;3.10;99.90;;;;;;5016207;28;20231;-80
2023/11/30 07:23:42;;;;;;;12.18;11.32;;;3.10;99.90;;;;;;5016662;28;20218;-79
2023/11/30 07:26:13;;;;;;;11.60;10.68;;;3.10;99.90;;;;;;5014413;28;20857;-80
2023/11/30 07:28:43;;;;;;;11.88;10.98;;;3.10;99.90;;;;;;5016993;28;20290;-79
2023/11/30 07:31:18;;;;;;;13.18;12.07;;;3.10;99.90;;;;;;5018237;28;20293;-80
2023/11/30 07:33:46;;;;;;;11.70;10.80;;;3.20;99.90;;;;;;5020847;28;20293;-79
2023/11/30 07:36:15;;;;;;;13.32;12.30;;;3.20;99.90;;;;;;5021141;28;20436;-79
2023/11/30 07:38:44;;;;;;;27.02;18.40;;;3.10;99.90;;;;;;5014195;28;20249;-79
2023/11/30 07:41:14;;;;;;;39.60;24.77;;;3.00;99.90;;;;;;5013831;28;20214;-79
2023/11/30 07:43:44;;;;;;;16.08;13.65;;;3.00;99.90;;;;;;5017698;28;20214;-80
2023/11/30 07:46:12;;;;;;;12.10;11.15;;;3.00;99.90;;;;;;5018577;28;20211;-80
2023/11/30 07:48:41;;;;;;;12.38;11.20;;;3.10;99.90;;;;;;5019399;28;20767;-80
2023/11/30 07:51:09;;;;;;;37.22;20.15;;;3.10;99.90;;;;;;5020454;28;20264;-80
2023/11/30 07:53:37;;;;;;;15.50;13.55;;;3.10;99.90;;;;;;5007593;28;20280;-80
2023/11/30 07:56:07;;;;;;;12.90;11.90;;;3.10;99.90;;;;;;5018854;28;20608;-79
2023/11/30 07:58:35;;;;;;;13.13;12.02;;;3.10;99.90;;;;;;5011508;28;20199;-79
2023/11/30 08:01:05;;;;;;;15.13;13.75;;;3.20;99.90;;;;;;5016192;28;20207;-79
2023/11/30 08:03:33;;;;;;;14.90;13.57;;;3.20;99.90;;;;;;5012537;28;21031;-79
2023/11/30 08:06:02;;;;;;;14.50;13.10;;;3.20;99.90;;;;;;5014891;28;20765;-80
2023/11/30 08:08:30;;;;;;;12.77;11.75;;;3.20;99.90;;;;;;5019652;28;20198;-80
2023/11/30 08:10:58;;;;;;;12.90;11.80;;;3.20;99.90;;;;;;5016527;28;20298;-79
2023/11/30 08:13:29;;;;;;;13.40;12.50;;;3.20;99.90;;;;;;5018488;28;20195;-80
2023/11/30 08:15:57;;;;;;;14.77;13.40;;;3.20;99.90;;;;;;5017908;28;20759;-79
2023/11/30 08:18:27;;;;;;;16.02;14.50;;;3.30;99.90;;;;;;5016881;28;20284;-79
2023/11/30 08:20:58;;;;;;;16.10;14.60;;;3.30;99.90;;;;;;5012580;28;20203;-78
2023/11/30 08:23:27;;;;;;;14.43;13.23;;;3.30;99.90;;;;;;5013761;28;20759;-79
2023/11/30 08:25:56;;;;;;;14.05;12.95;;;3.30;99.90;;;;;;5018476;28;20869;-79
2023/11/30 08:28:24;;;;;;;13.82;12.82;;;3.30;99.90;;;;;;5014066;28;20214;-79
2023/11/30 08:30:52;;;;;;;13.95;12.70;;;3.30;99.90;;;;;;5016506;28;20194;-79
2023/11/30 08:33:21;;;;;;;14.32;13.32;;;3.40;99.90;;;;;;5016506;28;20656;-80
2023/11/30 08:35:50;;;;;;;14.40;13.13;;;3.30;99.90;;;;;;5013848;28;20262;-79
2023/11/30 08:38:19;;;;;;;14.43;13.27;;;3.40;99.90;;;;;;5018900;28;20206;-79
2023/11/30 08:40:48;;;;;;;13.43;12.38;;;3.40;99.90;;;;;;5018435;28;20293;-80
2023/11/30 08:43:16;;;;;;;14.15;13.00;;;3.40;99.90;;;;;;5013509;28;20278;-80
2023/11/30 08:45:44;;;;;;;14.70;13.50;;;3.50;99.90;;;;;;5016695;28;20306;-79
2023/11/30 08:48:12;;;;;;;14.27;12.93;;;3.40;99.90;;;;;;5018196;28;20205;-80
2023/11/30 08:50:41;;;;;;;14.98;13.55;;;3.50;99.90;;;;;;5016276;28;20206;-80
2023/11/30 08:53:11;;;;;;;15.80;14.40;;;3.50;99.90;;;;;;5016303;28;20203;-79
2023/11/30 08:55:39;;;;;;;13.30;12.35;;;3.50;99.90;;;;;;5017181;28;20226;-79
2023/11/30 08:58:07;;;;;;;16.58;15.10;;;3.50;99.90;;;;;;5019644;28;20199;-80
2023/11/30 09:00:39;;;;;;;16.35;15.05;;;3.50;99.90;;;;;;5017326;28;20216;-80
2023/11/30 09:03:08;;;;;;;15.50;14.27;;;3.50;99.90;;;;;;5014816;28;20734;-79
2023/11/30 09:05:36;;;;;;;14.73;13.63;;;3.50;99.90;;;;;;5016304;28;20222;-79
2023/11/30 09:08:04;;;;;;;14.10;13.10;;;3.40;99.90;;;;;;5014206;28;20287;-79
2023/11/30 09:10:34;;;;;;;13.23;12.30;;;3.50;99.90;;;;;;5017336;28;20202;-80
2023/11/30 09:13:03;;;;;;;13.63;12.52;;;3.50;99.90;;;;;;5016869;28;20469;-80
2023/11/30 09:15:31;;;;;;;14.55;13.13;;;3.50;99.90;;;;;;5016549;28;20218;-79
2023/11/30 09:18:01;;;;;;;18.70;13.45;;;3.50;99.90;;;;;;5016259;28;20206;-79
2023/11/30 09:20:29;;;;;;;14.32;13.02;;;3.50;99.90;;;;;;5026559;28;22489;-79
2023/11/30 09:22:58;;;;;;;13.13;12.23;;;3.60;99.90;;;;;;5018353;28;20198;-79
2023/11/30 09:25:26;;;;;;;13.82;12.73;;;3.60;99.90;;;;;;5020112;28;20936;-78
2023/11/30 09:27:56;;;;;;;12.82;11.93;;;3.60;99.90;;;;;;5022211;28;20202;-79
2023/11/30 09:30:24;;;;;;;13.57;12.57;;;3.70;99.90;;;;;;5021029;28;20229;-79
2023/11/30 09:32:53;;;;;;;13.55;12.45;;;3.70;99.90;;;;;;5022397;28;20281;-79
2023/11/30 09:35:21;;;;;;;14.35;12.95;;;3.70;99.90;;;;;;5018606;28;20225;-78
2023/11/30 09:37:49;;;;;;;14.57;13.30;;;3.60;99.90;;;;;;5020694;28;20285;-79
2023/11/30 09:40:17;;;;;;;15.50;14.20;;;3.70;99.90;;;;;;5021902;28;20222;-80
2023/11/30 09:42:46;;;;;;;15.43;13.98;;;3.70;99.90;;;;;;5020466;28;20206;-79
2023/11/30 09:45:19;;;;;;;14.90;13.65;;;3.80;99.90;;;;;;5022204;28;20225;-80
2023/11/30 09:47:47;;;;;;;14.43;13.38;;;3.90;99.90;;;;;;5019784;28;20210;-79
2023/11/30 09:50:16;;;;;;;13.80;12.75;;;3.90;99.90;;;;;;5015118;28;20206;-79
2023/11/30 09:52:45;;;;;;;14.68;13.43;;;3.80;99.90;;;;;;5018581;28;20210;-79
2023/11/30 09:55:14;;;;;;;14.40;13.10;;;3.90;99.90;;;;;;5022377;28;20309;-78
2023/11/30 09:57:43;;;;;;;13.97;12.77;;;3.90;99.90;;;;;;5020485;28;20256;-79
2023/11/30 10:00:12;;;;;;;13.40;12.37;;;3.90;99.90;;;;;;5021124;28;20521;-79
2023/11/30 10:02:53;;;;;;;13.27;12.43;;;4.00;99.90;;;;;;5022710;28;20483;-79
2023/11/30 10:05:22;;;;;;;13.48;12.48;;;4.00;99.90;;;;;;5015243;28;20477;-79
2023/11/30 10:07:50;;;;;;;13.48;12.43;;;4.00;99.90;;;;;;5022125;28;20706;-79
2023/11/30 10:10:18;;;;;;;13.15;11.93;;;4.00;99.90;;;;;;5022676;28;20194;-78
2023/11/30 10:12:46;;;;;;;14.02;12.77;;;3.90;99.90;;;;;;5024113;28;20205;-80
2023/11/30 10:15:15;;;;;;;14.18;13.00;;;3.90;99.90;;;;;;5024869;28;20226;-79
2023/11/30 10:17:44;;;;;;;14.68;13.27;;;3.90;99.90;;;;;;5022645;28;20199;-79
2023/11/30 10:20:14;;;;;;;14.05;13.05;;;4.00;99.90;;;;;;5020994;28;20218;-79
2023/11/30 10:22:42;;;;;;;14.48;13.13;;;3.90;99.90;;;;;;5019603;28;20668;-79
2023/11/30 10:25:10;;;;;;;13.88;12.60;;;3.90;99.90;;;;;;5020771;28;20238;-80
2023/11/30 10:27:41;;;;;;;13.38;12.27;;;3.90;99.90;;;;;;5020883;28;20210;-79
2023/11/30 10:30:11;;;;;;;15.55;13.85;;;4.00;99.90;;;;;;5017884;28;21588;-79
2023/11/30 10:32:40;;;;;;;15.17;13.90;;;4.00;99.90;;;;;;5016970;28;20203;-80
2023/11/30 10:35:15;;;;;;;14.35;13.05;;;4.00;99.90;;;;;;5016906;28;20488;-79
2023/11/30 10:37:51;;;;;;;14.27;13.07;;;4.00;99.90;;;;;;5013968;28;20209;-78
2023/11/30 10:40:21;;;;;;;14.60;13.40;;;4.00;99.90;;;;;;5020002;28;20453;-80
2023/11/30 10:42:50;;;;;;;14.95;13.40;;;3.90;99.90;;;;;;5020781;28;20325;-80
2023/11/30 10:45:20;;;;;;;13.98;12.82;;;4.00;99.90;;;;;;5016044;28;20230;-79
2023/11/30 10:47:50;;;;;;;13.98;12.80;;;4.00;99.90;;;;;;5013247;28;20210;-78
2023/11/30 10:50:21;;;;;;;15.70;14.40;;;4.10;99.90;;;;;;5020045;28;20226;-79
2023/11/30 10:52:52;;;;;;;14.20;12.90;;;4.10;99.90;;;;;;5018899;28;20202;-79
2023/11/30 10:55:23;;;;;;;16.02;14.73;;;4.10;99.90;;;;;;5018121;28;20224;-80
2023/11/30 10:57:54;;;;;;;15.48;14.07;;;4.00;99.90;;;;;;5016405;28;20233;-79
2023/11/30 11:00:25;;;;;;;13.85;12.65;;;4.00;99.90;;;;;;5016641;28;20199;-79
2023/11/30 11:02:54;;;;;;;12.80;11.90;;;4.10;99.90;;;;;;5018543;28;20218;-80
2023/11/30 11:05:24;;;;;;;12.80;11.90;;;4.00;99.90;;;;;;5018924;28;20280;-79
2023/11/30 11:07:53;;;;;;;13.60;12.60;;;4.00;99.90;;;;;;5018105;28;20928;-79
2023/11/30 11:10:23;;;;;;;12.50;11.55;;;4.00;99.90;;;;;;5019710;28;20674;-80
2023/11/30 11:12:52;;;;;;;12.80;11.93;;;4.10;99.90;;;;;;5022091;28;20209;-79
2023/11/30 11:15:22;;;;;;;12.88;11.88;;;4.00;99.90;;;;;;5020778;28;20481;-80
2023/11/30 11:17:52;;;;;;;11.32;10.60;;;4.10;99.90;;;;;;5021482;28;20204;-80
2023/11/30 11:20:27;;;;;;;11.65;10.95;;;4.00;99.90;;;;;;5017631;28;20203;-79
2023/11/30 11:22:56;;;;;;;12.43;11.52;;;4.10;99.90;;;;;;5015980;28;20198;-79
2023/11/30 11:25:26;;;;;;;12.90;12.05;;;4.10;99.90;;;;;;5024130;28;20715;-80
2023/11/30 11:27:55;;;;;;;13.18;12.07;;;4.10;99.90;;;;;;5019197;28;20273;-80
2023/11/30 11:30:26;;;;;;;12.85;11.98;;;4.10;99.90;;;;;;5021575;28;20696;-80
2023/11/30 11:32:58;;;;;;;11.55;10.73;;;4.20;99.90;;;;;;5021259;28;20202;-79
2023/11/30 11:35:28;;;;;;;11.68;10.98;;;4.20;99.90;;;;;;5021937;28;20233;-80
2023/11/30 11:37:57;;;;;;;11.45;10.75;;;4.20;99.90;;;;;;5016761;28;20199;-80
2023/11/30 11:40:27;;;;;;;11.82;11.02;;;4.20;99.90;;;;;;5021612;28;20202;-80
2023/11/30 11:42:55;;;;;;;11.83;10.77;;;4.20;99.90;;;;;;5022772;28;20202;-79
2023/11/30 11:45:24;;;;;;;11.52;10.73;;;4.20;99.90;;;;;;5020343;28;20486;-79
2023/11/30 11:47:53;;;;;;;10.93;10.30;;;4.20;99.90;;;;;;5014301;28;20205;-80
2023/11/30 11:50:21;;;;;;;11.40;10.57;;;4.20;99.90;;;;;;5020895;28;20194;-80
2023/11/30 11:52:51;;;;;;;10.50;9.90;;;4.30;99.90;;;;;;5020615;28;20485;-80
2023/11/30 11:55:24;;;;;;;11.30;10.50;;;4.30;99.90;;;;;;5016134;28;20257;-80
2023/11/30 11:57:53;;;;;;;11.03;10.53;;;4.20;99.90;;;;;;5024906;28;20212;-80
2023/11/30 12:00:22;;;;;;;10.43;9.80;;;4.30;99.90;;;;;;5020681;28;20938;-85
2023/11/30 12:02:52;;;;;;;9.80;9.30;;;4.30;99.90;;;;;;5033796;28;20477;-80
2023/11/30 12:05:24;;;;;;;10.60;9.90;;;4.40;99.90;;;;;;5014150;28;20570;-79
2023/11/30 12:07:57;;;;;;;11.33;10.60;;;4.30;99.90;;;;;;5021223;28;20570;-80
2023/11/30 12:10:29;;;;;;;10.27;9.60;;;4.30;99.90;;;;;;5020106;28;20518;-78
2023/11/30 12:12:59;;;;;;;10.77;10.18;;;4.30;99.90;;;;;;5018622;28;20460;-79
2023/11/30 12:15:27;;;;;;;11.45;10.75;;;4.40;99.90;;;;;;5019139;28;20722;-80
2023/11/30 12:17:56;;;;;;;14.18;12.98;;;4.40;99.90;;;;;;5012917;28;20217;-80
2023/11/30 12:20:24;;;;;;;11.98;11.27;;;4.40;99.90;;;;;;5012552;28;20205;-79
2023/11/30 12:22:52;;;;;;;9.82;9.32;;;4.50;99.90;;;;;;5014286;28;20202;-80
2023/11/30 12:25:22;;;;;;;10.05;9.55;;;4.40;99.90;;;;;;5017260;28;20223;-79
2023/11/30 12:27:50;;;;;;;11.40;10.65;;;4.50;99.90;;;;;;5012304;28;20282;-79
2023/11/30 12:30:19;;;;;;;10.93;10.32;;;4.50;99.90;;;;;;5015877;28;20226;-79
2023/11/30 12:32:48;;;;;;;10.85;10.15;;;4.60;99.90;;;;;;5016356;28;21157;-79
2023/11/30 12:35:17;;;;;;;10.98;10.38;;;4.60;99.90;;;;;;5013969;28;20271;-80
2023/11/30 12:37:45;;;;;;;10.60;10.10;;;4.70;99.90;;;;;;5007480;28;20295;-80
2023/11/30 12:40:14;;;;;;;11.40;10.60;;;4.70;99.90;;;;;;5014522;28;20844;-80
2023/11/30 12:42:44;;;;;;;11.03;10.40;;;4.70;99.90;;;;;;5018460;28;20199;-80
2023/11/30 12:45:13;;;;;;;10.60;10.00;;;4.70;99.90;;;;;;5015869;28;20499;-79
2023/11/30 12:47:41;;;;;;;10.63;10.13;;;4.70;99.90;;;;;;5015288;28;20289;-79
2023/11/30 12:50:11;;;;;;;10.00;9.45;;;4.70;99.90;;;;;;5014356;28;20277;-79
2023/11/30 12:52:39;;;;;;;11.10;10.47;;;4.70;99.90;;;;;;5007818;28;20202;-79
2023/11/30 12:55:09;;;;;;;11.20;10.50;;;4.60;99.90;;;;;;5014122;28;20471;-79